Time;durP1;ratioP1;P1;durP2;ratioP2;P2;SDS_P1;SDS_P2;PMS_P1;PMS_P2;Temp;Humidity;BMP_temperature;BMP_pressure;BME280_temperature;BME280_humidity;BME280_pressure;Samples;Min_cycle;Max_cycle;Signal;HPM_P1;HPM_P2
2023/09/05 00:03:26;;;;;;;10.20;6.50;;;;;;;;;;12638568;23;19998;-70
2023/09/05 00:08:26;;;;;;;9.90;6.38;;;;;;;;;;12684003;23;20001;-70
2023/09/05 00:13:26;;;;;;;6.85;4.53;;;;;;;;;;12684411;23;20020;-70
2023/09/05 00:18:27;;;;;;;6.60;4.77;;;;;;;;;;12684510;23;20033;-70
2023/09/05 00:23:27;;;;;;;7.65;5.35;;;;;;;;;;12684120;23;20239;-70
2023/09/05 00:28:27;;;;;;;11.87;5.30;;;;;;;;;;12685876;23;19998;-70
2023/09/05 00:33:31;;;;;;;7.38;5.07;;;;;;;;;;12692257;23;20287;-70
2023/09/05 00:38:33;;;;;;;6.38;4.22;;;;;;;;;;12696637;23;20002;-71
2023/09/05 00:43:33;;;;;;;7.10;4.05;;;;;;;;;;12675881;23;20005;-71
2023/09/05 00:48:37;;;;;;;9.02;3.50;;;;;;;;;;12650906;23;20005;-71
2023/09/05 00:53:37;;;;;;;5.38;3.47;;;;;;;;;;12693347;23;20005;-70
2023/09/05 00:58:38;;;;;;;5.18;3.50;;;;;;;;;;12696132;23;20057;-70
2023/09/05 01:03:38;;;;;;;6.50;3.42;;;;;;;;;;12696217;23;20182;-70
2023/09/05 01:08:43;;;;;;;9.45;3.35;;;;;;;;;;12696214;23;20184;-70
2023/09/05 01:13:43;;;;;;;5.40;3.50;;;;;;;;;;12696028;23;20252;-73
2023/09/05 01:18:44;;;;;;;4.32;2.95;;;;;;;;;;12696099;23;20010;-70
2023/09/05 01:23:49;;;;;;;10.07;4.03;;;;;;;;;;12695673;23;20359;-70
2023/09/05 01:28:51;;;;;;;4.43;2.70;;;;;;;;;;12696040;23;20057;-71
2023/09/05 01:33:52;;;;;;;5.88;2.22;;;;;;;;;;12695515;23;19993;-72
2023/09/05 01:38:52;;;;;;;3.10;2.20;;;;;;;;;;12694526;23;20315;-70
2023/09/05 01:43:52;;;;;;;2.70;2.33;;;;;;;;;;12673301;23;20057;-70
2023/09/05 01:48:53;;;;;;;7.60;2.58;;;;;;;;;;12695963;23;19994;-72
2023/09/05 01:53:53;;;;;;;2.97;2.35;;;;;;;;;;12692665;23;20192;-72
2023/09/05 01:58:53;;;;;;;3.17;2.53;;;;;;;;;;12695496;23;20232;-71
2023/09/05 02:03:54;;;;;;;4.53;2.78;;;;;;;;;;12695665;23;20005;-71
2023/09/05 02:08:54;;;;;;;5.65;3.38;;;;;;;;;;12694968;23;19986;-69
2023/09/05 02:13:55;;;;;;;5.03;3.03;;;;;;;;;;12693611;23;19994;-69
2023/09/05 02:18:55;;;;;;;4.88;3.22;;;;;;;;;;12695123;23;19986;-69
2023/09/05 02:23:55;;;;;;;5.25;3.67;;;;;;;;;;12694175;23;20017;-72
2023/09/05 02:28:58;;;;;;;6.35;4.05;;;;;;;;;;12673805;23;19998;-71
2023/09/05 02:33:58;;;;;;;7.47;4.93;;;;;;;;;;12693830;23;19986;-69
2023/09/05 02:38:59;;;;;;;8.25;5.30;;;;;;;;;;12693372;23;20030;-70
2023/09/05 02:43:59;;;;;;;7.25;4.63;;;;;;;;;;12694057;23;20168;-70
2023/09/05 02:48:59;;;;;;;9.13;5.20;;;;;;;;;;12693990;23;19997;-70
2023/09/05 02:54:00;;;;;;;7.07;4.75;;;;;;;;;;12691013;23;19998;-70
2023/09/05 02:59:00;;;;;;;7.85;5.32;;;;;;;;;;12729106;23;20052;-70
2023/09/05 03:04:01;;;;;;;9.13;6.47;;;;;;;;;;12754945;23;20216;-70
2023/09/05 03:09:03;;;;;;;10.25;6.63;;;;;;;;;;12754722;23;19990;-70
2023/09/05 03:14:03;;;;;;;9.05;5.35;;;;;;;;;;12754305;23;19988;-70
2023/09/05 03:19:03;;;;;;;9.18;6.07;;;;;;;;;;12754566;23;19993;-70
2023/09/05 03:24:04;;;;;;;8.68;6.13;;;;;;;;;;12754579;23;20297;-70
2023/09/05 03:29:05;;;;;;;11.48;7.50;;;;;;;;;;12756102;23;20175;-69
2023/09/05 03:34:05;;;;;;;10.70;7.43;;;;;;;;;;12732302;23;19998;-70
2023/09/05 03:39:06;;;;;;;9.88;7.25;;;;;;;;;;12753972;23;19997;-69
2023/09/05 03:44:06;;;;;;;12.82;8.02;;;;;;;;;;12753656;23;20291;-70
2023/09/05 03:49:06;;;;;;;14.75;8.50;;;;;;;;;;12753940;23;20068;-70
2023/09/05 03:54:06;;;;;;;15.50;8.67;;;;;;;;;;12750800;23;20199;-70
2023/09/05 03:59:07;;;;;;;14.70;9.52;;;;;;;;;;12754026;23;20021;-70
2023/09/05 04:04:08;;;;;;;15.40;8.85;;;;;;;;;;12755569;23;20167;-71
2023/09/05 04:09:08;;;;;;;17.83;11.20;;;;;;;;;;12758976;23;19982;-71
2023/09/05 04:14:08;;;;;;;16.97;11.80;;;;;;;;;;12757192;23;20048;-69
2023/09/05 04:19:08;;;;;;;22.10;12.65;;;;;;;;;;12757243;23;20211;-70
2023/09/05 04:24:09;;;;;;;21.23;13.47;;;;;;;;;;12709934;23;20287;-70
2023/09/05 04:29:09;;;;;;;26.17;14.60;;;;;;;;;;12711665;23;19993;-70
2023/09/05 04:34:09;;;;;;;23.85;15.10;;;;;;;;;;12757225;23;20183;-71
2023/09/05 04:39:10;;;;;;;24.63;14.85;;;;;;;;;;12757690;23;19989;-71
2023/09/05 04:44:10;;;;;;;27.45;16.35;;;;;;;;;;12753943;23;20276;-71
2023/09/05 04:49:11;;;;;;;27.33;16.60;;;;;;;;;;12752906;23;20013;-71
2023/09/05 04:54:11;;;;;;;29.95;17.73;;;;;;;;;;12749968;23;19997;-71
2023/09/05 04:59:12;;;;;;;23.85;16.30;;;;;;;;;;12756326;23;20275;-71
2023/09/05 05:04:12;;;;;;;25.90;17.08;;;;;;;;;;12756455;23;20116;-72
2023/09/05 05:09:12;;;;;;;26.05;16.55;;;;;;;;;;12756201;23;19990;-71
2023/09/05 05:14:12;;;;;;;25.42;16.63;;;;;;;;;;12756302;23;20322;-71
2023/09/05 05:19:13;;;;;;;26.65;16.05;;;;;;;;;;12756766;23;20307;-72
2023/09/05 05:24:13;;;;;;;27.58;16.40;;;;;;;;;;12756314;23;20068;-72
2023/09/05 05:29:13;;;;;;;20.95;14.23;;;;;;;;;;12755978;23;19994;-72
2023/09/05 05:34:14;;;;;;;20.27;14.07;;;;;;;;;;12756405;23;20000;-71
2023/09/05 05:39:14;;;;;;;20.90;13.82;;;;;;;;;;12755787;23;19986;-72
2023/09/05 05:44:14;;;;;;;19.85;12.63;;;;;;;;;;12756539;23;20053;-70
2023/09/05 05:49:15;;;;;;;21.77;12.55;;;;;;;;;;12755966;23;20024;-70
2023/09/05 05:54:15;;;;;;;16.80;12.35;;;;;;;;;;12733939;23;20009;-70
2023/09/05 05:59:15;;;;;;;25.23;12.85;;;;;;;;;;12755510;23;20228;-72
2023/09/05 06:04:15;;;;;;;28.77;14.15;;;;;;;;;;12755917;23;19997;-71
2023/09/05 06:09:18;;;;;;;19.80;12.03;;;;;;;;;;12733642;23;20005;-70
2023/09/05 06:14:18;;;;;;;23.88;15.13;;;;;;;;;;12755429;23;20001;-70
2023/09/05 06:19:18;;;;;;;20.90;12.98;;;;;;;;;;12755604;23;19989;-71
2023/09/05 06:24:20;;;;;;;15.40;11.80;;;;;;;;;;12756463;23;20020;-71
2023/09/05 06:29:20;;;;;;;24.00;14.15;;;;;;;;;;12755024;23;20225;-72
2023/09/05 06:34:22;;;;;;;21.00;12.68;;;;;;;;;;12734295;23;20024;-72
2023/09/05 06:39:22;;;;;;;20.67;14.83;;;;;;;;;;12755315;23;19986;-71
2023/09/05 06:44:22;;;;;;;20.20;13.23;;;;;;;;;;12755952;23;20192;-71
2023/09/05 06:49:23;;;;;;;19.38;13.93;;;;;;;;;;12754984;23;20301;-70
2023/09/05 06:54:23;;;;;;;18.45;13.65;;;;;;;;;;12751683;23;20001;-71
2023/09/05 06:59:23;;;;;;;21.00;13.05;;;;;;;;;;12754659;23;20231;-70
2023/09/05 07:04:26;;;;;;;16.88;12.00;;;;;;;;;;12754789;23;20065;-70
2023/09/05 07:09:26;;;;;;;18.58;11.65;;;;;;;;;;12754505;23;20021;-71
2023/09/05 07:14:26;;;;;;;16.83;10.40;;;;;;;;;;12754114;23;20002;-70
2023/09/05 07:19:27;;;;;;;17.43;12.47;;;;;;;;;;12754772;23;19992;-70
2023/09/05 07:24:27;;;;;;;25.83;11.73;;;;;;;;;;12754495;23;19993;-71
2023/09/05 07:29:27;;;;;;;21.30;10.63;;;;;;;;;;12754112;23;20164;-71
2023/09/05 07:34:28;;;;;;;14.90;8.50;;;;;;;;;;12754132;23;20105;-71
2023/09/05 07:39:28;;;;;;;15.50;10.20;;;;;;;;;;12753914;23;20216;-70
2023/09/05 07:44:28;;;;;;;14.70;9.32;;;;;;;;;;12754182;23;20169;-70
2023/09/05 07:49:31;;;;;;;15.18;9.32;;;;;;;;;;12753943;23;20263;-70
2023/09/05 07:54:31;;;;;;;16.58;8.55;;;;;;;;;;12749202;23;19998;-71
2023/09/05 07:59:31;;;;;;;15.35;9.68;;;;;;;;;;12754062;23;20005;-71
2023/09/05 08:04:31;;;;;;;16.33;11.40;;;;;;;;;;12753580;23;20301;-71
2023/09/05 08:09:32;;;;;;;21.33;10.88;;;;;;;;;;12753648;23;19989;-71
2023/09/05 08:14:32;;;;;;;19.48;10.65;;;;;;;;;;12753516;23;20426;-71
2023/09/05 08:19:32;;;;;;;13.52;9.40;;;;;;;;;;12753140;23;19989;-70
2023/09/05 08:24:33;;;;;;;22.58;10.05;;;;;;;;;;12753478;23;20029;-70
2023/09/05 08:29:33;;;;;;;15.35;7.53;;;;;;;;;;12753757;23;19989;-71
2023/09/05 08:34:33;;;;;;;15.50;8.10;;;;;;;;;;12753110;23;20358;-70
2023/09/05 08:39:33;;;;;;;13.80;8.88;;;;;;;;;;12753514;23;20032;-71
2023/09/05 08:44:39;;;;;;;11.15;8.05;;;;;;;;;;12753715;23;19994;-71
2023/09/05 08:49:39;;;;;;;14.88;8.52;;;;;;;;;;12756216;23;20015;-71
2023/09/05 08:54:39;;;;;;;11.20;7.97;;;;;;;;;;12752201;23;20001;-71
2023/09/05 08:59:40;;;;;;;11.23;7.90;;;;;;;;;;12757344;23;20036;-71
2023/09/05 09:04:50;;;;;;;14.18;7.45;;;;;;;;;;12756836;23;19994;-71
2023/09/05 09:09:50;;;;;;;11.20;7.85;;;;;;;;;;12757188;23;20024;-70
2023/09/05 09:14:52;;;;;;;14.65;7.53;;;;;;;;;;12756607;23;20248;-71
2023/09/05 09:19:53;;;;;;;7.80;5.00;;;;;;;;;;12756843;23;19995;-71
2023/09/05 09:24:54;;;;;;;7.57;5.15;;;;;;;;;;12734822;23;20344;-71
2023/09/05 09:29:55;;;;;;;9.18;6.28;;;;;;;;;;12756460;23;20187;-71
2023/09/05 09:34:55;;;;;;;8.27;5.22;;;;;;;;;;12756569;23;19993;-72
2023/09/05 09:39:59;;;;;;;10.73;4.90;;;;;;;;;;12756673;23;20294;-73
2023/09/05 09:44:59;;;;;;;7.40;4.85;;;;;;;;;;12756158;23;19985;-72
2023/09/05 09:50:02;;;;;;;5.93;4.07;;;;;;;;;;12756465;23;20001;-71
2023/09/05 09:55:03;;;;;;;7.35;3.22;;;;;;;;;;12748872;23;20031;-71
2023/09/05 10:00:09;;;;;;;4.05;3.25;;;;;;;;;;12755332;23;20001;-71
2023/09/05 10:05:11;;;;;;;4.83;3.10;;;;;;;;;;12756227;23;19997;-72
2023/09/05 10:10:15;;;;;;;5.03;2.72;;;;;;;;;;12755701;23;20093;-72
2023/09/05 10:15:16;;;;;;;4.03;2.35;;;;;;;;;;12755812;23;20064;-72
2023/09/05 10:20:19;;;;;;;4.15;2.30;;;;;;;;;;12755561;23;19998;-70
2023/09/05 10:25:20;;;;;;;4.57;2.33;;;;;;;;;;12754036;23;20235;-70
2023/09/05 10:30:21;;;;;;;4.22;2.30;;;;;;;;;;12730601;23;20024;-70
2023/09/05 10:35:22;;;;;;;5.88;2.35;;;;;;;;;;12753969;23;20207;-69
2023/09/05 10:40:33;;;;;;;6.78;2.10;;;;;;;;;;12754363;23;19989;-70
2023/09/05 10:45:35;;;;;;;4.75;2.22;;;;;;;;;;12754269;23;20021;-70
2023/09/05 10:50:53;;;;;;;5.82;1.90;;;;;;;;;;12754171;23;19998;-70
2023/09/05 10:55:54;;;;;;;5.72;1.60;;;;;;;;;;12743628;23;20117;-71
2023/09/05 11:00:54;;;;;;;5.05;1.67;;;;;;;;;;12753581;23;19995;-71
2023/09/05 11:05:56;;;;;;;3.00;1.70;;;;;;;;;;12754242;23;20016;-70
2023/09/05 11:10:56;;;;;;;2.22;1.73;;;;;;;;;;12753938;23;19994;-70
2023/09/05 11:16:01;;;;;;;3.95;2.60;;;;;;;;;;12753426;23;19998;-71
2023/09/05 11:21:03;;;;;;;4.88;2.47;;;;;;;;;;12753795;23;19996;-71
2023/09/05 11:26:06;;;;;;;3.83;2.22;;;;;;;;;;12727394;23;20016;-71
2023/09/05 11:31:10;;;;;;;4.63;2.50;;;;;;;;;;12753553;23;20016;-71
2023/09/05 11:36:11;;;;;;;16.50;3.20;;;;;;;;;;12753403;23;20307;-71
2023/09/05 11:41:11;;;;;;;7.90;2.33;;;;;;;;;;12753324;23;20009;-70
2023/09/05 11:46:12;;;;;;;4.63;2.80;;;;;;;;;;12753516;23;19993;-70
2023/09/05 11:51:14;;;;;;;7.75;3.17;;;;;;;;;;12753605;23;20005;-71
2023/09/05 11:56:14;;;;;;;6.22;3.13;;;;;;;;;;12741258;23;20036;-72
2023/09/05 12:01:25;;;;;;;10.55;3.85;;;;;;;;;;12753253;23;20001;-71
2023/09/05 12:06:26;;;;;;;6.45;4.00;;;;;;;;;;12752972;23;19993;-71
2023/09/05 12:11:26;;;;;;;10.90;3.17;;;;;;;;;;12753451;23;20287;-71
2023/09/05 12:16:28;;;;;;;5.45;3.42;;;;;;;;;;12753217;23;20025;-70
2023/09/05 12:21:38;;;;;;;5.03;3.08;;;;;;;;;;12752618;23;19990;-71
2023/09/05 12:26:39;;;;;;;6.47;3.00;;;;;;;;;;12756215;23;20001;-71
2023/09/05 12:31:39;;;;;;;5.00;2.83;;;;;;;;;;12735149;23;20025;-70
2023/09/05 12:36:39;;;;;;;11.48;3.33;;;;;;;;;;12710110;23;20017;-70
2023/09/05 12:41:40;;;;;;;7.32;3.03;;;;;;;;;;12756532;23;20353;-72
2023/09/05 12:46:41;;;;;;;8.57;2.80;;;;;;;;;;12756803;23;19993;-71
2023/09/05 12:51:41;;;;;;;6.13;2.83;;;;;;;;;;12757143;23;20040;-72
2023/09/05 12:56:43;;;;;;;3.97;3.17;;;;;;;;;;12742526;23;20254;-72
2023/09/05 13:01:45;;;;;;;3.63;2.60;;;;;;;;;;12734091;23;20048;-72
2023/09/05 13:06:47;;;;;;;4.68;2.42;;;;;;;;;;12756423;23;20164;-71
2023/09/05 13:11:47;;;;;;;4.00;2.45;;;;;;;;;;12755979;23;20298;-71
2023/09/05 13:16:47;;;;;;;8.57;3.13;;;;;;;;;;12757443;23;20024;-71
2023/09/05 13:21:48;;;;;;;6.00;2.63;;;;;;;;;;12755991;23;20032;-71
2023/09/05 13:26:48;;;;;;;4.60;3.58;;;;;;;;;;12755595;23;19997;-71
2023/09/05 13:31:49;;;;;;;5.65;3.00;;;;;;;;;;12756248;23;20016;-71
2023/09/05 13:36:49;;;;;;;3.93;2.83;;;;;;;;;;12708441;23;20016;-70
2023/09/05 13:41:49;;;;;;;7.90;3.08;;;;;;;;;;12755363;23;20210;-70
2023/09/05 13:46:51;;;;;;;5.78;3.55;;;;;;;;;;12756146;23;20348;-72
2023/09/05 13:51:51;;;;;;;4.55;3.13;;;;;;;;;;12754975;23;20012;-70
2023/09/05 13:56:51;;;;;;;9.23;3.15;;;;;;;;;;12740731;23;20366;-70
2023/09/05 14:01:52;;;;;;;3.60;2.67;;;;;;;;;;12754503;23;20270;-70
2023/09/05 14:06:53;;;;;;;6.22;2.90;;;;;;;;;;12733044;23;20001;-72
2023/09/05 14:11:53;;;;;;;6.75;2.78;;;;;;;;;;12754606;23;20504;-73
2023/09/05 14:16:55;;;;;;;9.15;3.35;;;;;;;;;;12754458;23;20001;-71
2023/09/05 14:21:55;;;;;;;6.03;2.83;;;;;;;;;;12754873;23;20037;-70
2023/09/05 14:26:56;;;;;;;6.70;2.83;;;;;;;;;;12754292;23;20047;-71
2023/09/05 14:31:57;;;;;;;9.63;3.25;;;;;;;;;;12732236;23;20192;-71
2023/09/05 14:36:57;;;;;;;6.63;3.17;;;;;;;;;;12754022;23;20001;-70
2023/09/05 14:41:57;;;;;;;5.85;2.67;;;;;;;;;;12754324;23;19989;-70
2023/09/05 14:46:58;;;;;;;9.75;3.13;;;;;;;;;;12753984;23;20009;-70
2023/09/05 14:51:58;;;;;;;10.60;3.00;;;;;;;;;;12753425;23;20036;-71
2023/09/05 14:56:58;;;;;;;6.97;3.15;;;;;;;;;;12739559;23;20028;-71
2023/09/05 15:01:58;;;;;;;10.02;3.15;;;;;;;;;;12753782;23;20013;-71
2023/09/05 15:07:00;;;;;;;7.38;3.42;;;;;;;;;;12753727;23;20176;-70
2023/09/05 15:12:01;;;;;;;6.40;3.63;;;;;;;;;;12753457;23;20001;-70
2023/09/05 15:17:01;;;;;;;7.18;3.40;;;;;;;;;;12753518;23;20250;-71
2023/09/05 15:22:03;;;;;;;4.63;3.40;;;;;;;;;;12755109;23;20032;-70
2023/09/05 15:27:05;;;;;;;8.73;3.33;;;;;;;;;;12753397;23;20005;-71
2023/09/05 15:32:05;;;;;;;5.80;4.10;;;;;;;;;;12752967;23;19997;-69
2023/09/05 15:37:05;;;;;;;9.18;3.60;;;;;;;;;;12752854;23;20029;-70
2023/09/05 15:42:06;;;;;;;8.18;4.50;;;;;;;;;;12731617;23;20247;-70
2023/09/05 15:47:06;;;;;;;12.75;4.25;;;;;;;;;;12753632;23;20010;-71
2023/09/05 15:52:06;;;;;;;10.20;3.88;;;;;;;;;;12752772;23;19996;-70
2023/09/05 15:57:06;;;;;;;9.77;4.13;;;;;;;;;;12738222;23;20195;-71
2023/09/05 16:02:07;;;;;;;6.32;4.18;;;;;;;;;;12757307;23;19990;-70
2023/09/05 16:07:09;;;;;;;9.93;4.35;;;;;;;;;;12756691;23;20315;-70
2023/09/05 16:12:09;;;;;;;4.90;3.20;;;;;;;;;;12757590;23;19994;-70
2023/09/05 16:17:10;;;;;;;10.50;4.60;;;;;;;;;;12756805;23;20001;-69
2023/09/05 16:22:10;;;;;;;8.17;3.70;;;;;;;;;;12756767;23;19994;-69
2023/09/05 16:27:10;;;;;;;14.95;3.70;;;;;;;;;;12757094;23;19990;-70
2023/09/05 16:32:10;;;;;;;6.37;3.60;;;;;;;;;;12756879;23;20056;-70
2023/09/05 16:37:14;;;;;;;7.82;3.95;;;;;;;;;;12756432;23;20299;-69
2023/09/05 16:42:15;;;;;;;7.72;3.58;;;;;;;;;;12757996;23;20180;-69
2023/09/05 16:47:16;;;;;;;6.70;3.77;;;;;;;;;;12756648;23;20135;-69
2023/09/05 16:52:16;;;;;;;19.73;4.38;;;;;;;;;;12756048;23;20378;-69
2023/09/05 16:57:16;;;;;;;6.33;3.70;;;;;;;;;;12740134;23;20001;-69
2023/09/05 17:02:16;;;;;;;7.18;4.10;;;;;;;;;;12756521;23;20311;-69
2023/09/05 17:07:21;;;;;;;13.10;4.32;;;;;;;;;;12756381;23;20032;-70
2023/09/05 17:12:21;;;;;;;4.88;3.05;;;;;;;;;;12756255;23;19993;-70
2023/09/05 17:17:21;;;;;;;4.10;3.30;;;;;;;;;;12755949;23;20021;-69
2023/09/05 17:22:21;;;;;;;6.30;3.63;;;;;;;;;;12734091;23;20195;-70
2023/09/05 17:27:22;;;;;;;9.98;5.43;;;;;;;;;;12756560;23;20089;-69
2023/09/05 17:32:22;;;;;;;6.97;3.60;;;;;;;;;;12734594;23;20247;-68
2023/09/05 17:37:22;;;;;;;7.45;3.28;;;;;;;;;;12756510;23;20012;-69
2023/09/05 17:42:22;;;;;;;8.38;3.55;;;;;;;;;;12756277;23;20263;-70
2023/09/05 17:47:23;;;;;;;5.10;3.67;;;;;;;;;;12756099;23;20188;-69
2023/09/05 17:52:23;;;;;;;8.70;3.40;;;;;;;;;;12756546;23;20001;-70
2023/09/05 17:57:23;;;;;;;8.52;3.63;;;;;;;;;;12739344;23;20013;-70
2023/09/05 18:02:26;;;;;;;6.93;3.10;;;;;;;;;;12755811;23;20053;-70
2023/09/05 18:07:27;;;;;;;8.48;4.45;;;;;;;;;;12756167;23;20270;-70
2023/09/05 18:12:27;;;;;;;8.57;3.58;;;;;;;;;;12755620;23;19997;-71
2023/09/05 18:17:27;;;;;;;7.97;4.05;;;;;;;;;;12755264;23;20434;-70
2023/09/05 18:22:28;;;;;;;7.93;4.93;;;;;;;;;;12753793;23;20045;-70
2023/09/05 18:27:28;;;;;;;12.43;3.60;;;;;;;;;;12754537;23;20434;-70
2023/09/05 18:32:28;;;;;;;7.78;3.90;;;;;;;;;;12730128;23;20203;-70
2023/09/05 18:37:28;;;;;;;4.35;3.40;;;;;;;;;;12752621;23;20224;-71
2023/09/05 18:42:29;;;;;;;10.27;2.60;;;;;;;;;;12754054;23;20004;-71
2023/09/05 18:47:29;;;;;;;9.27;4.35;;;;;;;;;;12704286;23;20156;-71
2023/09/05 18:52:30;;;;;;;11.57;3.30;;;;;;;;;;12751479;23;20001;-71
2023/09/05 18:57:33;;;;;;;8.65;3.97;;;;;;;;;;12734946;23;20010;-71
2023/09/05 19:02:33;;;;;;;9.23;3.25;;;;;;;;;;12754512;23;20064;-71
2023/09/05 19:07:33;;;;;;;10.23;4.47;;;;;;;;;;12754823;23;20214;-72
2023/09/05 19:12:33;;;;;;;8.60;3.65;;;;;;;;;;12732471;23;20002;-71
2023/09/05 19:17:34;;;;;;;11.57;5.03;;;;;;;;;;12753773;23;20001;-73
2023/09/05 19:28:10;;;;;;;9.35;3.22;;;;;;;;;;12727869;23;20001;-70
2023/09/05 19:33:10;;;;;;;7.28;3.67;;;;;;;;;;12752509;23;19993;-70
2023/09/05 19:38:10;;;;;;;10.38;4.90;;;;;;;;;;12749522;23;20279;-69
2023/09/05 19:48:50;;;;;;;10.68;3.95;;;;;;;;;;12681976;23;20096;-71
2023/09/05 19:53:51;;;;;;;15.43;4.32;;;;;;;;;;12734925;23;20053;-80
2023/09/05 19:58:52;;;;;;;6.63;3.90;;;;;;;;;;12688896;23;20014;-77
2023/09/05 20:03:53;;;;;;;7.18;5.07;;;;;;;;;;12737794;23;19993;-68
2023/09/05 20:08:53;;;;;;;10.55;4.30;;;;;;;;;;12735962;23;20510;-69
2023/09/05 20:13:53;;;;;;;8.07;4.65;;;;;;;;;;12735516;23;20004;-76
2023/09/05 20:18:54;;;;;;;9.23;5.10;;;;;;;;;;12723853;23;20013;-81
2023/09/05 20:23:54;;;;;;;8.35;5.82;;;;;;;;;;12737485;23;20048;-75
2023/09/05 20:28:54;;;;;;;11.40;5.20;;;;;;;;;;12735550;23;20315;-71
2023/09/05 20:33:55;;;;;;;10.48;6.13;;;;;;;;;;12688340;23;20237;-78
2023/09/05 20:38:55;;;;;;;15.13;7.27;;;;;;;;;;12735695;23;20028;-78
2023/09/05 20:43:55;;;;;;;9.50;6.03;;;;;;;;;;12735481;23;19994;-73
2023/09/05 20:48:55;;;;;;;8.88;5.72;;;;;;;;;;12740941;23;20225;-77
2023/09/05 20:53:56;;;;;;;9.97;5.90;;;;;;;;;;12718884;23;20009;-73
2023/09/05 20:58:56;;;;;;;12.18;5.35;;;;;;;;;;12739001;23;20306;-74
2023/09/05 21:03:56;;;;;;;7.35;5.90;;;;;;;;;;12739773;23;20001;-85
2023/09/05 21:08:57;;;;;;;8.80;5.43;;;;;;;;;;12695485;23;20294;-80
2023/09/05 21:13:57;;;;;;;7.85;5.88;;;;;;;;;;12739277;23;20005;-76
2023/09/05 21:19:00;;;;;;;8.02;5.78;;;;;;;;;;12725166;23;20010;-80
2023/09/05 21:24:00;;;;;;;9.02;6.03;;;;;;;;;;12742745;23;20001;-73
2023/09/05 21:29:00;;;;;;;8.23;6.13;;;;;;;;;;12737953;23;20001;-69
2023/09/05 21:34:01;;;;;;;12.43;7.75;;;;;;;;;;12733569;23;20283;-72
2023/09/05 21:39:01;;;;;;;7.93;6.30;;;;;;;;;;12713836;23;20005;-74
2023/09/05 21:44:01;;;;;;;8.03;5.27;;;;;;;;;;12738258;23;19997;-73
2023/09/05 21:49:02;;;;;;;10.80;6.47;;;;;;;;;;12738193;23;20004;-71
2023/09/05 21:54:02;;;;;;;9.30;6.68;;;;;;;;;;12738008;23;20060;-71
2023/09/05 21:59:03;;;;;;;7.05;6.07;;;;;;;;;;12737205;23;20061;-72
2023/09/05 22:04:03;;;;;;;14.20;6.10;;;;;;;;;;12737983;23;20329;-71
2023/09/05 22:09:05;;;;;;;8.23;5.93;;;;;;;;;;12737427;23;20239;-71
2023/09/05 22:14:05;;;;;;;7.95;5.72;;;;;;;;;;12737313;23;20246;-72
2023/09/05 22:19:17;;;;;;;7.07;5.63;;;;;;;;;;12722543;23;20013;-85
2023/09/05 22:24:17;;;;;;;7.28;5.15;;;;;;;;;;12738781;23;20044;-84
2023/09/05 22:29:18;;;;;;;6.13;4.97;;;;;;;;;;12693886;23;19998;-82
2023/09/05 22:34:18;;;;;;;6.30;4.53;;;;;;;;;;12734975;23;20225;-78
2023/09/05 22:39:19;;;;;;;8.40;5.70;;;;;;;;;;12739453;23;19998;-76
2023/09/05 22:44:19;;;;;;;6.35;5.05;;;;;;;;;;12741652;23;20068;-76
2023/09/05 22:49:19;;;;;;;6.80;4.65;;;;;;;;;;12743450;23;19989;-74
2023/09/05 22:54:19;;;;;;;6.30;3.90;;;;;;;;;;12743229;23;20000;-78
2023/09/05 22:59:20;;;;;;;5.40;4.03;;;;;;;;;;12743314;23;19993;-77
2023/09/05 23:04:20;;;;;;;4.38;3.95;;;;;;;;;;12745494;23;19993;-81
2023/09/05 23:09:20;;;;;;;7.38;4.50;;;;;;;;;;12746788;23;20054;-74
2023/09/05 23:14:20;;;;;;;9.52;4.57;;;;;;;;;;12699457;23;20204;-78
2023/09/05 23:19:21;;;;;;;5.47;4.15;;;;;;;;;;12723604;23;20002;-73
2023/09/05 23:24:21;;;;;;;5.88;4.07;;;;;;;;;;12741636;23;20004;-75
2023/09/05 23:29:22;;;;;;;5.47;4.22;;;;;;;;;;12742739;23;20052;-78
2023/09/05 23:34:22;;;;;;;9.13;5.20;;;;;;;;;;12742967;23;19993;-76
2023/09/05 23:39:23;;;;;;;8.43;4.40;;;;;;;;;;12742533;23;20016;-76
2023/09/05 23:44:24;;;;;;;8.50;5.37;;;;;;;;;;12742513;23;20009;-76
2023/09/05 23:49:25;;;;;;;5.68;4.60;;;;;;;;;;12742023;23;20000;-76
2023/09/05 23:54:25;;;;;;;6.13;4.85;;;;;;;;;;12742011;23;20208;-77
2023/09/05 23:59:25;;;;;;;9.82;4.68;;;;;;;;;;12742534;23;20164;-76
